createdAt,value
2023-05-19T00:00:01.615Z,59.722
2023-05-19T00:07:01.862Z,59.722
2023-05-19T00:14:01.344Z,59.905
2023-05-19T00:21:01.635Z,59.905
2023-05-19T00:28:01.514Z,60.179
2023-05-19T00:35:02.493Z,60.179
2023-05-19T00:42:01.881Z,60.666
2023-05-19T00:49:01.548Z,60.666
2023-05-19T00:56:01.453Z,61.089
2023-05-19T01:00:02.032Z,61.089
2023-05-19T01:07:02.230Z,61.32
2023-05-19T01:14:01.890Z,61.32
2023-05-19T01:21:01.446Z,61.5
2023-05-19T01:28:02.028Z,61.5
2023-05-19T01:35:01.866Z,62.042
2023-05-19T01:42:01.710Z,62.042
2023-05-19T01:49:01.962Z,62.364
2023-05-19T01:56:01.306Z,62.933
2023-05-19T02:00:01.930Z,62.933
2023-05-19T02:07:02.040Z,62.933
2023-05-19T02:14:02.129Z,63.933
2023-05-19T02:21:01.870Z,63.705
2023-05-19T02:28:01.737Z,63.705
2023-05-19T02:35:01.492Z,64.161
2023-05-19T02:42:01.786Z,64.161
2023-05-19T02:49:01.526Z,64.955
2023-05-19T02:56:02.324Z,64.955
2023-05-19T03:00:01.881Z,65.246
2023-05-19T03:07:01.341Z,65.246
2023-05-19T03:14:01.793Z,65.101
2023-05-19T03:21:02.077Z,65.101
2023-05-19T03:28:02.292Z,66.104
2023-05-19T03:35:01.580Z,66.104
2023-05-19T03:42:01.933Z,66.002
2023-05-19T03:49:02.125Z,66.002
2023-05-19T03:56:01.719Z,66.779
2023-05-19T04:00:02.443Z,66.779
2023-05-19T04:07:02.088Z,66.978
2023-05-19T04:14:01.639Z,66.978
2023-05-19T04:21:01.829Z,67.423
2023-05-19T04:28:02.046Z,67.423
2023-05-19T04:35:02.543Z,67.553
2023-05-19T04:42:01.529Z,67.553
2023-05-19T04:49:01.786Z,67.5
2023-05-19T04:56:01.960Z,67.377
2023-05-19T05:00:02.682Z,67.377
2023-05-19T05:07:01.984Z,67.377
2023-05-19T05:14:01.705Z,67.231
2023-05-19T05:21:02.058Z,66.846
2023-05-19T05:28:01.551Z,66.846
2023-05-19T05:35:02.393Z,66.166
2023-05-19T05:42:01.938Z,66.166
2023-05-19T05:49:01.677Z,65.566
2023-05-19T05:56:01.317Z,65.566
2023-05-19T06:00:01.879Z,65.17
2023-05-19T06:07:01.967Z,65.17
2023-05-19T06:14:01.876Z,64.35
2023-05-19T06:21:02.261Z,64.35
2023-05-19T06:28:01.780Z,63.658
2023-05-19T06:35:01.794Z,63.658
2023-05-19T06:42:01.303Z,62.025
2023-05-19T06:49:01.869Z,62.025
2023-05-19T06:56:02.063Z,62.899
2023-05-19T07:00:01.632Z,62.899
2023-05-19T07:07:01.815Z,61.816
2023-05-19T07:14:01.585Z,61.816
2023-05-19T07:21:02.142Z,60.812
2023-05-19T07:28:01.671Z,60.812
2023-05-19T07:35:01.935Z,59.755
2023-05-19T07:42:01.686Z,59.755
2023-05-19T07:49:02.239Z,58.719
2023-05-19T07:56:01.364Z,58.605
2023-05-19T08:00:01.876Z,58.605
2023-05-19T08:07:01.903Z,58.605
2023-05-19T08:14:01.864Z,58.194
2023-05-19T08:21:01.576Z,58.194
2023-05-19T08:28:01.830Z,56.433
2023-05-19T08:35:01.762Z,56.295
2023-05-19T08:42:01.822Z,56.295
2023-05-19T08:49:01.857Z,54.459
2023-05-19T08:56:01.837Z,54.459
2023-05-19T09:00:02.437Z,52.527
2023-05-19T09:07:02.257Z,52.527
2023-05-19T09:14:01.375Z,52.792
2023-05-19T09:21:01.628Z,52.792
2023-05-19T09:28:01.534Z,52.255
2023-05-19T09:35:01.522Z,52.255
2023-05-19T09:42:01.755Z,51.109
2023-05-19T09:49:01.638Z,51.109
2023-05-19T09:56:02.026Z,49.085
2023-05-19T10:00:01.579Z,49.085
2023-05-19T10:07:02.104Z,50.232
2023-05-19T10:14:01.497Z,50.232
2023-05-19T10:21:01.848Z,48.444
2023-05-19T10:28:02.318Z,48.444
2023-05-19T10:35:01.924Z,49.746
2023-05-19T10:42:01.330Z,49.746
2023-05-19T10:49:01.980Z,48.725
2023-05-19T10:56:01.356Z,49.383
2023-05-19T11:00:01.934Z,49.383
2023-05-19T11:07:02.156Z,49.383
2023-05-19T11:14:01.746Z,48.812
2023-05-19T11:21:01.936Z,48.812
2023-05-19T11:28:01.378Z,48.841
2023-05-19T11:35:02.157Z,48.411
2023-05-19T11:42:02.015Z,48.411
2023-05-19T11:49:01.985Z,48.337
2023-05-19T11:56:01.962Z,48.337
2023-05-19T12:00:01.719Z,48.26
2023-05-19T12:07:01.977Z,48.26
2023-05-19T12:14:01.327Z,47.069
2023-05-19T12:21:01.595Z,47.069
2023-05-19T12:28:01.377Z,47.362
2023-05-19T12:35:01.815Z,47.362
2023-05-19T12:42:01.926Z,47.824
2023-05-19T12:49:01.322Z,47.824
2023-05-19T12:56:02.166Z,47.401
2023-05-19T13:00:01.729Z,47.401
2023-05-19T13:07:02.279Z,47.578
2023-05-19T13:14:02.198Z,47.578
2023-05-19T13:21:01.698Z,47.065
2023-05-19T13:28:02.011Z,47.065
2023-05-19T13:35:01.946Z,46.806
2023-05-19T13:42:01.804Z,46.806
2023-05-19T13:49:01.862Z,47.336
2023-05-19T13:56:01.543Z,46.284
2023-05-19T14:00:04.026Z,46.284
2023-05-19T14:07:02.233Z,46.284
2023-05-19T14:14:01.769Z,46.519
2023-05-19T14:21:01.335Z,46.519
2023-05-19T14:28:01.529Z,45.927
2023-05-19T14:35:02.172Z,46.109
2023-05-19T14:42:02.277Z,46.109
2023-05-19T14:49:01.685Z,45.913
2023-05-19T14:56:01.976Z,45.913
2023-05-19T15:00:01.618Z,45.913
2023-05-19T15:14:01.539Z,44.458
2023-05-19T15:21:02.010Z,44.458
2023-05-19T15:28:02.311Z,46.589
2023-05-19T15:35:01.831Z,46.589
2023-05-19T15:42:02.176Z,45.317
2023-05-19T15:49:02.290Z,45.317
2023-05-19T15:56:03.985Z,44.866
2023-05-19T16:00:02.401Z,44.866
2023-05-19T16:07:02.298Z,44.173
2023-05-19T16:14:01.530Z,44.173
2023-05-19T16:21:01.747Z,43.966
2023-05-19T16:28:01.321Z,43.966
2023-05-19T16:35:01.629Z,43.511
2023-05-19T16:42:01.944Z,43.511
2023-05-19T16:49:01.756Z,43.272
2023-05-19T16:56:01.398Z,43.272
2023-05-19T17:00:02.053Z,43.14
2023-05-19T17:07:02.054Z,43.14
2023-05-19T17:14:01.698Z,43.227
2023-05-19T17:21:01.405Z,43.227
2023-05-19T17:28:02.278Z,42.443
2023-05-19T17:35:02.024Z,42.034
2023-05-19T17:42:01.565Z,42.034
2023-05-19T17:49:02.248Z,42.426
2023-05-19T17:56:01.358Z,42.426
2023-05-19T18:00:01.992Z,42.426
2023-05-19T18:07:01.761Z,42.065
2023-05-19T18:14:01.673Z,42.607
2023-05-19T18:21:02.284Z,42.607
2023-05-19T18:28:01.865Z,43.46
2023-05-19T18:35:01.869Z,43.46
2023-05-19T18:42:01.479Z,43.895
2023-05-19T18:49:01.863Z,43.895
2023-05-19T18:56:02.220Z,43.453
2023-05-19T19:00:01.776Z,43.453
2023-05-19T19:07:02.165Z,44.388
2023-05-19T19:14:01.312Z,44.388
2023-05-19T19:21:01.569Z,44.856
2023-05-19T19:28:02.030Z,44.856
2023-05-19T19:35:01.525Z,45.306
2023-05-19T19:42:01.994Z,45.306
2023-05-19T19:49:02.269Z,45.665
2023-05-19T19:56:02.128Z,45.665
2023-05-19T20:00:01.682Z,46.152
2023-05-19T20:07:01.823Z,46.152
2023-05-19T20:14:01.613Z,46.837
2023-05-19T20:21:02.291Z,46.837
2023-05-19T20:28:01.490Z,47.276
2023-05-19T20:35:01.942Z,47.902
2023-05-19T20:42:01.976Z,47.902
2023-05-19T20:49:02.152Z,48.384
2023-05-19T20:56:01.357Z,48.384
2023-05-19T21:00:01.924Z,48.384
2023-05-19T21:07:02.022Z,48.949
2023-05-19T21:14:01.695Z,49.541
2023-05-19T21:21:02.021Z,49.541
2023-05-19T21:28:01.493Z,49.791
2023-05-19T21:35:02.064Z,49.791
2023-05-19T21:42:01.547Z,50.645
2023-05-19T21:49:01.745Z,50.645
2023-05-19T21:56:01.396Z,50.893
2023-05-19T22:00:02.013Z,50.893
2023-05-19T22:07:01.852Z,51.308
2023-05-19T22:14:01.600Z,51.308
2023-05-19T22:21:02.134Z,51.816
2023-05-19T22:28:02.050Z,51.816
2023-05-19T22:35:01.917Z,52.148
2023-05-19T22:42:01.413Z,52.148
2023-05-19T22:49:02.033Z,52.254
2023-05-19T22:56:02.028Z,52.254
2023-05-19T23:00:01.555Z,52.704
2023-05-19T23:07:01.986Z,52.704
2023-05-19T23:14:02.179Z,53.019
2023-05-19T23:21:01.727Z,53.019
2023-05-19T23:28:01.594Z,53.651
2023-05-19T23:35:01.973Z,54.036
2023-05-19T23:42:01.491Z,54.036
2023-05-19T23:49:02.162Z,54.299
2023-05-19T23:56:01.723Z,54.299
